createdAt,value
2022-10-08T00:01:24.700Z,102010.67
2022-10-08T00:03:54.978Z,102015.12
2022-10-08T00:06:29.232Z,102016.88
2022-10-08T00:09:03.392Z,102015.28
2022-10-08T00:11:33.990Z,102008.25
2022-10-08T00:14:03.083Z,102011.13
2022-10-08T00:16:37.294Z,102008.25
2022-10-08T00:19:08.581Z,102001.71
2022-10-08T00:21:39.373Z,102009.40
2022-10-08T00:24:09.179Z,102010.18
2022-10-08T00:26:42.783Z,102007.30
2022-10-08T00:29:14.598Z,102009.40
2022-10-08T00:31:46.469Z,102011.75
2022-10-08T00:34:17.229Z,102013.35
2022-10-08T00:36:45.472Z,102000.27
2022-10-08T00:39:16.517Z,102007.60
2022-10-08T00:41:46.888Z,102006.16
2022-10-08T00:44:45.280Z,102003.94
2022-10-08T00:47:20.287Z,102002.50
2022-10-08T00:49:50.962Z,102008.88
2022-10-08T00:52:20.578Z,101998.21
2022-10-08T00:54:51.187Z,102001.38
2022-10-08T00:57:20.768Z,102002.46
2022-10-08T00:59:48.565Z,101991.64
2022-10-08T01:02:17.001Z,101992.26
2022-10-08T01:04:45.366Z,101986.64
2022-10-08T01:07:30.400Z,101989.35
2022-10-08T01:10:22.001Z,101986.02
2022-10-08T01:13:19.745Z,101978.49
2022-10-08T01:16:03.134Z,101980.39
2022-10-08T01:19:07.577Z,101971.76
2022-10-08T01:21:51.813Z,101977.52
2022-10-08T01:24:57.015Z,101969.37
2022-10-08T01:27:30.560Z,101968.59
2022-10-08T01:30:02.549Z,101971.46
2022-10-08T01:32:36.080Z,101974.34
2022-10-08T01:35:11.061Z,101970.98
2022-10-08T01:37:41.865Z,101969.66
2022-10-08T01:40:16.715Z,101964.44
2022-10-08T01:42:46.183Z,101969.66
2022-10-08T01:45:19.302Z,101970.19
2022-10-08T01:47:50.632Z,101962.51
2022-10-08T01:50:29.272Z,101964.14
2022-10-08T01:53:03.652Z,101960.45
2022-10-08T01:55:43.475Z,101954.52
2022-10-08T01:58:17.795Z,101965.05
2022-10-08T02:00:48.437Z,101960.90
2022-10-08T02:03:16.518Z,101947.95
2022-10-08T02:05:49.787Z,101953.58
2022-10-08T02:08:17.952Z,101951.19
2022-10-08T02:10:45.871Z,101948.31
2022-10-08T02:13:13.878Z,101954.07
2022-10-08T02:16:03.809Z,101946.55
2022-10-08T02:19:08.700Z,101950.08
2022-10-08T02:21:40.873Z,101946.22
2022-10-08T02:24:41.311Z,101949.09
2022-10-08T02:27:12.362Z,101949.42
2022-10-08T02:30:05.852Z,101937.13
2022-10-08T02:32:45.684Z,101933.76
2022-10-08T02:35:23.878Z,101937.42
2022-10-08T02:38:00.909Z,101943.99
2022-10-08T02:40:31.570Z,101943.99
2022-10-08T02:43:06.946Z,101941.41
2022-10-08T02:45:43.173Z,101938.05
2022-10-08T02:48:19.895Z,101937.59
2022-10-08T02:50:51.210Z,101935.49
2022-10-08T02:53:19.512Z,101945.20
2022-10-08T02:56:05.690Z,101953.55
2022-10-08T02:58:33.848Z,101949.39
2022-10-08T03:01:09.682Z,101949.06
2022-10-08T03:03:45.327Z,101953.55
2022-10-08T03:06:14.493Z,101965.87
2022-10-08T03:08:47.466Z,101965.22
2022-10-08T03:11:15.328Z,101956.59
2022-10-08T03:13:49.426Z,101952.76
2022-10-08T03:16:22.360Z,101960.90
2022-10-08T03:18:53.194Z,101960.90
2022-10-08T03:21:21.541Z,101968.23
2022-10-08T03:23:49.242Z,101970.16
2022-10-08T03:26:19.648Z,101967.61
2022-10-08T03:28:47.376Z,101970.48
2022-10-08T03:31:15.389Z,101976.99
2022-10-08T03:33:43.080Z,101976.53
2022-10-08T03:36:10.814Z,101975.26
2022-10-08T03:38:38.496Z,101975.26
2022-10-08T03:41:06.198Z,101975.55
2022-10-08T03:43:34.889Z,101978.43
2022-10-08T03:46:03.430Z,101980.36
2022-10-08T03:48:31.142Z,101974.27
2022-10-08T03:51:05.191Z,101974.60
2022-10-08T03:53:38.082Z,101976.50
2022-10-08T03:56:28.402Z,101978.89
2022-10-08T03:59:01.263Z,101974.73
2022-10-08T04:01:30.157Z,101976.01
2022-10-08T04:03:57.754Z,101975.68
2022-10-08T04:06:25.491Z,101982.26
2022-10-08T04:08:53.133Z,101975.87
2022-10-08T04:11:21.341Z,101977.64
2022-10-08T04:13:48.978Z,101972.38
2022-10-08T04:16:18.542Z,101976.04
2022-10-08T04:18:46.999Z,101978.59
2022-10-08T04:21:17.570Z,101980.39
2022-10-08T04:23:46.054Z,101976.70
2022-10-08T04:26:15.543Z,101981.18
2022-10-08T04:28:47.340Z,101966.63
2022-10-08T04:31:19.907Z,101976.08
2022-10-08T04:33:48.282Z,101968.09
2022-10-08T04:36:18.207Z,101970.65
2022-10-08T04:38:46.892Z,101971.46
2022-10-08T04:41:15.835Z,101972.55
2022-10-08T04:43:44.675Z,101973.36
2022-10-08T04:46:15.514Z,101968.09
2022-10-08T04:48:56.687Z,101966.33
2022-10-08T04:51:26.893Z,101958.98
2022-10-08T04:53:55.986Z,101962.99
2022-10-08T04:56:26.784Z,101960.12
2022-10-08T04:58:56.217Z,101942.03
2022-10-08T05:01:24.499Z,101955.15
2022-10-08T05:03:56.225Z,101955.15
2022-10-08T05:06:27.117Z,101951.48
2022-10-08T05:08:55.507Z,101956.55
2022-10-08T05:11:28.078Z,101957.66
2022-10-08T05:13:58.184Z,101956.88
2022-10-08T05:16:27.196Z,101946.65
2022-10-08T05:18:54.954Z,101953.22
2022-10-08T05:21:28.969Z,101958.98
2022-10-08T05:24:03.416Z,101961.33
2022-10-08T05:26:57.512Z,101959.76
2022-10-08T05:29:21.941Z,101966.30
2022-10-08T05:31:49.559Z,101967.09
2022-10-08T05:34:17.514Z,101969.17
2022-10-08T05:36:45.650Z,101965.84
2022-10-08T05:39:13.338Z,101976.04
2022-10-08T05:41:41.732Z,101977.16
2022-10-08T05:44:11.746Z,101979.09
2022-10-08T05:46:40.424Z,101978.56
2022-10-08T05:49:09.808Z,101977.61
2022-10-08T05:51:39.521Z,101980.30
2022-10-08T05:54:07.148Z,101978.53
2022-10-08T05:56:34.848Z,101984.15
2022-10-08T05:59:02.489Z,101987.84
2022-10-08T06:01:32.662Z,101990.53
2022-10-08T06:04:08.679Z,101987.98
2022-10-08T06:06:38.232Z,101989.55
2022-10-08T06:09:07.949Z,102001.38
2022-10-08T06:11:37.612Z,102000.08
2022-10-08T06:14:08.184Z,102009.04
2022-10-08T06:16:36.604Z,102008.71
2022-10-08T06:19:05.985Z,102009.52
2022-10-08T06:21:34.753Z,102014.47
2022-10-08T06:24:05.090Z,102015.77
2022-10-08T06:26:36.477Z,102023.10
2022-10-08T06:29:06.630Z,102016.88
2022-10-08T06:31:37.875Z,102027.88
2022-10-08T06:34:06.340Z,102025.52
2022-10-08T06:36:35.760Z,102033.34
2022-10-08T06:39:07.456Z,102024.08
2022-10-08T06:41:36.018Z,102036.90
2022-10-08T06:44:05.526Z,102030.20
2022-10-08T06:46:33.933Z,102035.95
2022-10-08T06:49:02.401Z,102035.95
2022-10-08T06:51:31.210Z,102033.50
2022-10-08T06:54:05.993Z,102032.71
2022-10-08T06:56:36.698Z,102036.57
2022-10-08T06:59:06.015Z,102039.32
2022-10-08T07:01:34.476Z,102041.54
2022-10-08T07:04:03.234Z,102040.43
2022-10-08T07:06:31.126Z,102040.43
2022-10-08T07:09:01.282Z,102038.37
2022-10-08T07:11:29.989Z,102043.30
2022-10-08T07:13:58.803Z,102042.98
2022-10-08T07:16:28.105Z,102047.16
2022-10-08T07:18:58.227Z,102047.95
2022-10-08T07:21:26.634Z,102049.55
2022-10-08T07:23:54.308Z,102047.63
2022-10-08T07:26:24.255Z,102046.84
2022-10-08T07:28:56.378Z,102050.04
2022-10-08T07:31:29.064Z,102057.07
2022-10-08T07:33:57.701Z,102050.99
2022-10-08T07:36:26.790Z,102055.77
2022-10-08T07:38:59.178Z,102057.37
2022-10-08T07:41:27.809Z,102066.33
2022-10-08T07:43:59.487Z,102066.95
2022-10-08T07:46:32.833Z,102067.57
2022-10-08T07:49:02.591Z,102067.57
2022-10-08T07:51:32.651Z,102065.67
2022-10-08T07:54:02.796Z,102070.45
2022-10-08T07:56:32.930Z,102061.48
2022-10-08T07:59:01.855Z,102065.31
2022-10-08T08:01:31.104Z,102069.50
2022-10-08T08:04:03.142Z,102072.21
2022-10-08T08:06:32.876Z,102065.15
2022-10-08T08:09:02.003Z,102073.00
2022-10-08T08:11:32.536Z,102074.11
2022-10-08T08:14:00.212Z,102071.85
2022-10-08T08:16:30.470Z,102068.32
2022-10-08T08:19:00.705Z,102066.85
2022-10-08T08:21:33.880Z,102069.11
2022-10-08T08:24:16.299Z,102067.99
2022-10-08T08:26:44.738Z,102070.22
2022-10-08T08:29:15.287Z,102059.79
2022-10-08T08:31:48.193Z,102072.28
2022-10-08T08:34:21.734Z,102066.69
2022-10-08T08:36:52.029Z,102074.17
2022-10-08T08:39:25.648Z,102071.13
2022-10-08T08:41:59.082Z,102071.95
2022-10-08T08:44:39.463Z,102069.66
2022-10-08T08:47:15.159Z,102065.67
2022-10-08T08:49:46.588Z,102065.38
2022-10-08T08:52:17.325Z,102062.17
2022-10-08T08:54:50.422Z,102077.58
2022-10-08T08:57:42.690Z,102070.52
2022-10-08T09:00:19.627Z,102069.53
2022-10-08T09:03:07.542Z,102075.13
2022-10-08T09:05:40.844Z,102078.79
2022-10-08T09:08:22.228Z,102068.39
2022-10-08T09:10:56.276Z,102069.34
2022-10-08T09:13:49.012Z,102067.37
2022-10-08T09:16:18.112Z,102070.52
2022-10-08T09:18:51.475Z,102077.15
2022-10-08T09:21:20.740Z,102073.95
2022-10-08T09:23:48.958Z,102074.99
2022-10-08T09:26:23.345Z,102071.52
2022-10-08T09:28:56.733Z,102073.26
2022-10-08T09:31:37.816Z,102079.99
2022-10-08T09:34:11.467Z,102082.32
2022-10-08T09:36:45.140Z,102086.50
2022-10-08T09:39:31.494Z,102092.48
2022-10-08T09:42:08.215Z,102096.45
2022-10-08T09:44:50.431Z,102099.52
2022-10-08T09:47:23.232Z,102099.84
2022-10-08T09:50:03.231Z,102101.71
2022-10-08T09:52:31.024Z,102102.72
2022-10-08T09:55:11.947Z,102108.09
2022-10-08T09:57:46.344Z,102098.44
2022-10-08T10:00:27.847Z,102095.30
2022-10-08T10:02:57.605Z,102095.10
2022-10-08T10:05:31.148Z,102095.23
2022-10-08T10:07:59.114Z,102097.91
2022-10-08T10:10:43.140Z,102098.30
2022-10-08T10:13:10.682Z,102093.41
2022-10-08T10:16:05.531Z,102088.20
2022-10-08T10:19:05.755Z,102091.08
2022-10-08T10:21:47.566Z,102090.10
2022-10-08T10:24:23.493Z,102095.95
2022-10-08T10:26:54.879Z,102086.50
2022-10-08T10:29:25.885Z,102081.80
2022-10-08T10:32:01.433Z,102085.06
2022-10-08T10:34:31.756Z,102084.64
2022-10-08T10:37:03.508Z,102079.51
2022-10-08T10:39:40.078Z,102071.98
2022-10-08T10:42:37.547Z,102089.35
2022-10-08T10:45:23.613Z,102075.98
2022-10-08T10:47:52.221Z,102071.20
2022-10-08T10:50:53.374Z,102087.26
2022-10-08T10:53:34.469Z,102084.05
2022-10-08T10:56:19.356Z,102085.16
2022-10-08T10:59:28.715Z,102089.35
2022-10-08T11:02:24.233Z,102082.74
2022-10-08T11:05:33.914Z,102077.34
2022-10-08T11:08:31.445Z,102087.02
2022-10-08T11:11:17.690Z,102083.13
2022-10-08T11:14:22.106Z,102069.17
2022-10-08T11:16:58.575Z,102077.15
2022-10-08T11:19:44.578Z,102069.04
2022-10-08T11:22:39.340Z,102068.52
2022-10-08T11:25:22.241Z,102061.13
2022-10-08T11:27:55.582Z,102064.01
2022-10-08T11:30:48.345Z,102066.30
2022-10-08T11:33:18.291Z,102067.02
2022-10-08T11:36:03.019Z,102062.50
2022-10-08T11:38:46.206Z,102063.81
2022-10-08T11:41:20.010Z,102073.03
2022-10-08T11:43:55.743Z,102075.09
2022-10-08T11:46:29.643Z,102073.23
2022-10-08T11:48:58.744Z,102070.84
2022-10-08T11:51:26.346Z,102064.27
2022-10-08T11:54:17.657Z,102066.06
2022-10-08T11:56:52.855Z,102062.60
2022-10-08T11:59:26.422Z,102063.87
2022-10-08T12:02:03.637Z,102068.32
2022-10-08T12:04:38.721Z,102059.03
2022-10-08T12:07:15.480Z,102060.93
2022-10-08T12:10:04.524Z,102060.93
2022-10-08T12:12:50.883Z,102053.34
2022-10-08T12:15:24.924Z,102056.23
2022-10-08T12:17:58.590Z,102062.53
2022-10-08T12:20:29.666Z,102061.16
2022-10-08T12:23:18.782Z,102064.04
2022-10-08T12:25:46.339Z,102059.27
2022-10-08T12:28:20.032Z,102060.08
2022-10-08T12:30:51.922Z,102052.98
2022-10-08T12:33:20.622Z,102047.69
2022-10-08T12:35:57.285Z,102052.17
2022-10-08T12:38:52.070Z,102055.60
2022-10-08T12:41:26.535Z,102056.81
2022-10-08T12:44:22.564Z,102055.11
2022-10-08T12:47:18.023Z,102064.30
2022-10-08T12:49:53.528Z,102061.36
2022-10-08T12:52:22.963Z,102061.84
2022-10-08T12:54:56.258Z,102059.43
2022-10-08T12:57:28.152Z,102050.20
2022-10-08T12:59:55.902Z,102052.49
2022-10-08T13:02:40.521Z,102052.49
2022-10-08T13:05:25.393Z,102052.23
2022-10-08T13:07:53.445Z,102047.23
2022-10-08T13:10:30.103Z,102056.71
2022-10-08T13:13:25.064Z,102049.32
2022-10-08T13:16:00.432Z,102050.70
2022-10-08T13:18:31.503Z,102048.41
2022-10-08T13:21:08.976Z,102047.88
2022-10-08T13:23:40.392Z,102055.27
2022-10-08T13:26:39.219Z,102052.89
2022-10-08T13:29:25.141Z,102053.18
2022-10-08T13:32:03.171Z,102051.09
2022-10-08T13:34:49.284Z,102065.61
2022-10-08T13:37:22.804Z,102059.10
2022-10-08T13:40:12.369Z,102063.87
2022-10-08T13:42:50.527Z,102063.16
2022-10-08T13:45:20.678Z,102064.34
2022-10-08T13:47:49.177Z,102059.85
2022-10-08T13:50:17.379Z,102064.34
2022-10-08T13:52:57.015Z,102065.45
2022-10-08T13:55:30.672Z,102064.13
2022-10-08T13:58:03.792Z,102069.89
2022-10-08T14:00:35.114Z,102071.49
2022-10-08T14:03:03.471Z,102068.32
2022-10-08T14:05:34.003Z,102075.16
2022-10-08T14:08:05.724Z,102070.48
2022-10-08T14:10:34.179Z,102068.88
2022-10-08T14:13:01.821Z,102071.56
2022-10-08T14:15:29.502Z,102075.26
2022-10-08T14:17:57.183Z,102074.73
2022-10-08T14:20:25.173Z,102073.72
2022-10-08T14:22:53.242Z,102076.89
2022-10-08T14:25:24.935Z,102072.41
2022-10-08T14:27:53.131Z,102074.02
2022-10-08T14:30:20.869Z,102069.04
2022-10-08T14:32:48.582Z,102079.21
2022-10-08T14:35:16.348Z,102076.04
2022-10-08T14:37:44.206Z,102076.53
2022-10-08T14:40:17.551Z,102078.95
2022-10-08T14:42:45.748Z,102070.77
2022-10-08T14:45:13.866Z,102072.34
2022-10-08T14:47:41.993Z,102076.10
2022-10-08T14:50:10.168Z,102087.48
2022-10-08T14:52:43.360Z,102077.51
2022-10-08T14:55:12.490Z,102080.39
2022-10-08T14:57:40.160Z,102074.41
2022-10-08T15:00:08.718Z,102070.97
2022-10-08T15:02:36.450Z,102071.79
2022-10-08T15:05:04.266Z,102078.59
2022-10-08T15:07:31.980Z,102079.87
2022-10-08T15:09:59.967Z,102069.92
2022-10-08T15:12:27.775Z,102072.80
2022-10-08T15:14:55.434Z,102068.81
2022-10-08T15:17:23.107Z,102067.51
2022-10-08T15:19:50.760Z,102061.45
2022-10-08T15:22:18.373Z,102069.40
2022-10-08T15:24:46.031Z,102071.98
2022-10-08T15:27:16.212Z,102065.41
2022-10-08T15:29:47.660Z,102067.57
2022-10-08T15:32:16.906Z,102073.36
2022-10-08T15:34:44.602Z,102079.93
2022-10-08T15:37:12.375Z,102081.77
2022-10-08T15:39:39.969Z,102090.43
2022-10-08T15:42:07.804Z,102091.73
2022-10-08T15:44:35.562Z,102092.52
2022-10-08T15:47:07.981Z,102089.35
2022-10-08T15:49:41.460Z,102091.15
2022-10-08T15:52:13.869Z,102087.19
2022-10-08T15:54:42.885Z,102098.77
2022-10-08T15:57:12.348Z,102093.96
2022-10-08T15:59:40.282Z,102094.19
2022-10-08T16:02:11.719Z,102100.20
2022-10-08T16:04:42.086Z,102099.09
2022-10-08T16:07:10.106Z,102105.38
2022-10-08T16:09:37.765Z,102093.24
2022-10-08T16:12:05.500Z,102105.30
2022-10-08T16:14:33.375Z,102102.62
2022-10-08T16:17:01.127Z,102111.48
2022-10-08T16:19:29.587Z,102110.11
2022-10-08T16:21:58.610Z,102116.13
2022-10-08T16:24:26.610Z,102118.38
2022-10-08T16:26:54.294Z,102128.06
2022-10-08T16:29:22.081Z,102124.60
2022-10-08T16:31:49.900Z,102130.59
2022-10-08T16:34:25.616Z,102130.78
2022-10-08T16:36:53.302Z,102133.40
2022-10-08T16:39:22.670Z,102137.77
2022-10-08T16:41:50.536Z,102139.25
2022-10-08T16:44:20.309Z,102140.27
2022-10-08T16:46:51.430Z,102141.73
2022-10-08T16:49:26.295Z,102146.12
2022-10-08T16:51:56.862Z,102149.71
2022-10-08T16:54:25.202Z,102156.48
2022-10-08T16:56:53.631Z,102159.26
2022-10-08T16:59:24.082Z,102163.94
2022-10-08T17:01:54.742Z,102167.83
2022-10-08T17:04:24.625Z,102172.21
2022-10-08T17:06:53.228Z,102173.68
2022-10-08T17:09:21.717Z,102177.25
2022-10-08T17:11:49.630Z,102181.95
2022-10-08T17:14:17.297Z,102182.12
2022-10-08T17:16:46.090Z,102191.47
2022-10-08T17:19:14.039Z,102193.47
2022-10-08T17:21:41.660Z,102192.81
2022-10-08T17:24:10.970Z,102189.05
2022-10-08T17:26:38.800Z,102202.36
2022-10-08T17:29:09.237Z,102199.35
2022-10-08T17:31:38.068Z,102197.95
2022-10-08T17:34:06.703Z,102212.07
2022-10-08T17:36:37.181Z,102213.25
2022-10-08T17:39:07.424Z,102217.40
2022-10-08T17:41:38.268Z,102217.76
2022-10-08T17:44:08.131Z,102221.00
2022-10-08T17:46:42.754Z,102219.40
2022-10-08T17:49:10.497Z,102218.77
2022-10-08T17:51:38.178Z,102235.45
2022-10-08T17:54:08.594Z,102237.71
2022-10-08T17:56:36.432Z,102240.29
2022-10-08T17:59:04.799Z,102234.21
2022-10-08T18:01:41.454Z,102239.64
2022-10-08T18:04:14.387Z,102238.85
2022-10-08T18:06:43.787Z,102248.30
2022-10-08T18:09:14.032Z,102246.24
2022-10-08T18:11:45.084Z,102254.06
2022-10-08T18:14:12.908Z,102257.75
2022-10-08T18:16:45.575Z,102257.30
2022-10-08T18:19:15.600Z,102258.57
2022-10-08T18:21:43.304Z,102258.05
2022-10-08T18:24:12.034Z,102265.11
2022-10-08T18:26:40.009Z,102272.99
2022-10-08T18:29:10.761Z,102279.99
2022-10-08T18:31:40.846Z,102277.80
2022-10-08T18:34:12.728Z,102281.16
2022-10-08T18:36:41.145Z,102279.40
2022-10-08T18:39:14.590Z,102280.68
2022-10-08T18:41:47.619Z,102284.34
2022-10-08T18:44:19.251Z,102283.55
2022-10-08T18:46:47.315Z,102286.43
2022-10-08T18:49:17.840Z,102290.91
2022-10-08T18:51:45.896Z,102290.09
2022-10-08T18:54:13.715Z,102288.85
2022-10-08T18:56:42.568Z,102293.49
2022-10-08T18:59:14.574Z,102302.13
2022-10-08T19:01:44.897Z,102295.72
2022-10-08T19:04:18.403Z,102301.70
2022-10-08T19:06:48.706Z,102298.66
2022-10-08T19:09:17.555Z,102302.81
2022-10-08T19:11:48.069Z,102300.92
2022-10-08T19:14:18.657Z,102303.80
2022-10-08T19:16:46.747Z,102311.16
2022-10-08T19:19:20.252Z,102307.66
2022-10-08T19:21:49.365Z,102310.20
2022-10-08T19:24:19.935Z,102312.76
2022-10-08T19:26:48.475Z,102318.05
2022-10-08T19:29:25.185Z,102315.02
2022-10-08T19:31:53.392Z,102315.99
2022-10-08T19:34:24.238Z,102317.27
2022-10-08T19:36:52.345Z,102318.58
2022-10-08T19:39:23.245Z,102317.27
2022-10-08T19:41:51.261Z,102325.61
2022-10-08T19:44:19.515Z,102325.61
2022-10-08T19:46:48.141Z,102325.12
2022-10-08T19:49:16.893Z,102326.72
2022-10-08T19:51:44.981Z,102330.38
2022-10-08T19:54:13.370Z,102322.73
2022-10-08T19:56:41.275Z,102333.75
2022-10-08T19:59:10.988Z,102335.02
2022-10-08T20:01:40.332Z,102331.36
2022-10-08T20:04:10.129Z,102335.52
2022-10-08T20:06:40.531Z,102344.15
2022-10-08T20:09:12.865Z,102334.73
2022-10-08T20:11:42.069Z,102333.12
2022-10-08T20:14:10.115Z,102334.89
2022-10-08T20:16:40.672Z,102334.89
2022-10-08T20:19:15.325Z,102339.05
2022-10-08T20:21:43.035Z,102338.42
2022-10-08T20:24:10.828Z,102342.91
2022-10-08T20:26:40.737Z,102348.66
2022-10-08T20:29:11.611Z,102348.34
2022-10-08T20:31:42.541Z,102351.21
2022-10-08T20:34:19.286Z,102355.37
2022-10-08T20:36:47.924Z,102349.28
2022-10-08T20:39:17.703Z,102354.58
2022-10-08T20:41:45.757Z,102355.04
2022-10-08T20:44:13.830Z,102356.31
2022-10-08T20:46:41.582Z,102352.65
2022-10-08T20:49:11.177Z,102350.72
2022-10-08T20:51:41.833Z,102348.66
2022-10-08T20:54:11.975Z,102360.50
2022-10-08T20:56:41.482Z,102354.74
2022-10-08T20:59:10.827Z,102361.77
2022-10-08T21:01:40.018Z,102355.69
2022-10-08T21:04:08.423Z,102368.80
2022-10-08T21:06:40.447Z,102363.05
2022-10-08T21:09:08.697Z,102359.06
2022-10-08T21:11:37.134Z,102361.45
2022-10-08T21:14:05.920Z,102363.54
2022-10-08T21:16:36.396Z,102362.39
2022-10-08T21:19:06.742Z,102359.88
2022-10-08T21:21:35.479Z,102357.91
2022-10-08T21:24:03.157Z,102366.09
2022-10-08T21:26:39.838Z,102361.15
2022-10-08T21:29:10.269Z,102358.73
2022-10-08T21:31:39.605Z,102367.07
2022-10-08T21:34:07.829Z,102357.30
2022-10-08T21:36:38.439Z,102356.97
2022-10-08T21:39:07.885Z,102358.73
2022-10-08T21:41:37.524Z,102362.88
2022-10-08T21:44:08.156Z,102360.17
2022-10-08T21:46:39.161Z,102363.05
2022-10-08T21:49:13.661Z,102360.79
2022-10-08T21:51:41.902Z,102364.45
2022-10-08T21:54:11.836Z,102366.55
2022-10-08T21:56:41.484Z,102365.89
2022-10-08T21:59:11.990Z,102370.05
2022-10-08T22:01:45.789Z,102372.14
2022-10-08T22:04:16.709Z,102372.63
2022-10-08T22:06:56.617Z,102377.41
2022-10-08T22:09:27.375Z,102364.62
2022-10-08T22:11:56.579Z,102367.98
2022-10-08T22:14:24.806Z,102359.35
2022-10-08T22:16:52.793Z,102352.78
2022-10-08T22:19:20.687Z,102353.27
2022-10-08T22:21:48.603Z,102353.27
2022-10-08T22:24:16.477Z,102339.66
2022-10-08T22:26:47.313Z,102338.39
2022-10-08T22:29:15.257Z,102336.79
2022-10-08T22:31:43.274Z,102336.95
2022-10-08T22:34:11.816Z,102330.58
2022-10-08T22:36:42.905Z,102329.30
2022-10-08T22:39:11.213Z,102328.98
2022-10-08T22:41:39.636Z,102338.49
2022-10-08T22:44:07.303Z,102327.80
2022-10-08T22:46:40.584Z,102323.32
2022-10-08T22:49:11.583Z,102327.18
2022-10-08T22:51:39.757Z,102316.45
2022-10-08T22:54:07.904Z,102318.87
2022-10-08T22:56:36.066Z,102318.05
2022-10-08T22:59:03.718Z,102320.60
2022-10-08T23:01:32.713Z,102317.73
2022-10-08T23:04:00.453Z,102316.91
2022-10-08T23:06:31.105Z,102315.66
2022-10-08T23:09:01.698Z,102315.17
2022-10-08T23:11:30.847Z,102311.84
2022-10-08T23:14:00.167Z,102313.12
2022-10-08T23:16:29.204Z,102311.84
2022-10-08T23:18:59.896Z,102303.96
2022-10-08T23:21:28.392Z,102309.29
2022-10-08T23:23:57.404Z,102305.13
2022-10-08T23:26:26.536Z,102299.52
2022-10-08T23:28:56.953Z,102297.45
2022-10-08T23:31:30.859Z,102286.40
2022-10-08T23:33:59.553Z,102293.89
2022-10-08T23:36:30.287Z,102284.96
2022-10-08T23:38:58.127Z,102287.97
2022-10-08T23:41:26.984Z,102284.30
2022-10-08T23:43:57.452Z,102280.61
2022-10-08T23:46:28.316Z,102274.23
2022-10-08T23:48:56.806Z,102275.22
2022-10-08T23:51:25.781Z,102265.44
2022-10-08T23:53:53.760Z,102275.34
2022-10-08T23:56:22.874Z,102267.99
2022-10-08T23:58:50.971Z,102267.20
